Flight Track Log - Related Links

Times and Time Zones

All times are in EDT time to prevent confusion due to time zone crossing. See the PDT4373 flight status page for this flight to view local times or setup timezone preferences in your user account.

Time Position Orientation Groundspeed Altitude Reporting Facility
EDT Latitude Longitude Course Direction KTS MPH feet Rate Location/Type
Mon 09:48:49 AM 39.9000 -75.2333 295° West 125 144 600  Level Philadelphia TRACON
Mon 09:49:49 AM 39.9333 -75.2500 339° North 150 173 1,800 1,200 Climbing Philadelphia TRACON
Mon 09:50:49 AM 39.9667 -75.2833 323° Northwest 169 194 3,000 1,250 Climbing Philadelphia TRACON
Mon 09:51:49 AM 40.0000 -75.3333 311° West 172 198 4,300 1,300 Climbing Philadelphia TRACON
Mon 09:52:00 AM 40.1236 -75.3178 311° West  Level Estimated
Mon 09:52:49 AM 40.0000 -75.3833 270° West 171 197 5,600  Level Philadelphia TRACON
Mon 09:53:00 AM 40.1865 -75.3372 311° West  Level Estimated
Mon 09:53:49 AM 39.9833 -75.4500 252° West 170 196 6,900  Level Philadelphia TRACON
Mon 09:54:00 AM 40.2141 -75.4136 295° West  Level FlightAware Approximate
Mon 09:54:28 AM 39.9861 -75.4794 277° West 183 211 7,700  Level New York Center
Mon 09:55:28 AM 40.0378 -75.4911 350° North 183 211 9,000 650 Climbing New York Center
Mon 09:56:28 AM 40.0911 -75.5111 344° North 195 224 9,000  Level New York Center
Mon 09:57:28 AM 40.1572 -75.5319 346° North 223 257 9,000  Level New York Center
Mon 09:58:28 AM 40.2228 -75.5553 345° North 229 264 9,000 50 Level New York Center
Mon 09:59:28 AM 40.2581 -75.6150 308° West 221 254 9,100 450 Climbing New York Center
Mon 10:00:28 AM 40.2972 -75.6722 312° West 221 254 9,900 950 Climbing New York Center
Mon 10:01:28 AM 40.3408 -75.7269 316° Northwest 198 228 11,000 1,000 Climbing New York Center
Mon 10:02:28 AM 40.3897 -75.7550 336° Northwest 188 216 11,900 500 Climbing New York Center
Mon 10:03:28 AM 40.4383 -75.7858 334° Northwest 188 216 12,000 50 Climbing New York Center
Mon 10:04:28 AM 40.4933 -75.8169 337° Northwest 218 251 12,000  Level New York Center
Mon 10:06:28 AM 40.6261 -75.8789 341° North 241 277 12,000  Level New York Center
Mon 10:07:28 AM 40.6869 -75.9189 334° Northwest 246 283 12,000  Level New York Center
Mon 10:08:28 AM 40.7500 -75.9511 339° North 246 283 12,000  Level New York Center
Mon 10:09:28 AM 40.8153 -75.9833 340° North 246 283 12,000  Level New York Center
Mon 10:10:28 AM 40.8761 -76.0211 335° Northwest 246 283 12,000  Level New York Center
Mon 10:11:28 AM 40.9331 -76.0556 335° Northwest 246 283 12,000  Level New York Center
Mon 10:12:28 AM 41.0025 -76.0886 340° North 246 283 12,000 50 Level New York Center
Mon 10:13:28 AM 41.0594 -76.1150 341° North 246 283 12,100 50 Climbing New York Center
Mon 10:14:28 AM 41.1203 -76.1528 335° Northwest 246 283 12,100  Level New York Center
Mon 10:15:28 AM 41.1917 -76.1861 341° North 246 283 12,100  Level New York Center
Mon 10:16:28 AM 41.2572 -76.2081 346° North 246 283 12,100  Level New York Center
Mon 10:17:28 AM 41.3286 -76.1997 North 240 276 12,100  Level New York Center
Mon 10:18:28 AM 41.3914 -76.1939 North 247 284 12,100  Level New York Center
Mon 10:19:28 AM 41.4622 -76.1914 North 253 291 12,100  Level New York Center
Mon 10:20:28 AM 41.5397 -76.1808 North 253 291 12,100 -500 Level New York Center
Mon 10:21:28 AM 41.6131 -76.1758 North 258 297 11,100 -950 Descending New York Center
Mon 10:22:28 AM 41.6900 -76.1764 360° North 264 304 10,200 -950 Descending New York Center
Mon 10:23:28 AM 41.7592 -76.1681 North 272 313 9,200 -1,000 Descending New York Center
Mon 10:24:28 AM 41.8319 -76.1656 North 272 313 8,200 -1,200 Descending New York Center
Mon 10:25:28 AM 41.9100 -76.1469 10° North 267 307 6,800 -1,300 Descending New York Center
Mon 10:26:28 AM 41.9783 -76.1078 23° Northeast 262 302 5,600 -1,150 Descending New York Center
Mon 10:27:28 AM 42.0481 -76.0856 13° North 262 302 4,500 -1,150 Descending New York Center
Mon 10:28:28 AM 42.1156 -76.0658 12° North 251 289 3,300 -650 Descending New York Center
Mon 10:29:28 AM 42.1747 -76.0481 13° North 231 266 3,200 -150 Descending New York Center
Mon 10:30:28 AM 42.2181 -76.0517 356° North 192 221 3,000 -400 Descending New York Center
Mon 10:31:28 AM 42.2447 -76.0147 46° Northeast 124 143 2,400 -450 Descending New York Center
Mon 10:32:28 AM 42.2397 -75.9861 103° East 83 96 2,100 -300 Descending New York Center

Login

Don't have an account? Register now (free) for customized features, flight alerts, and more!